Time;durP1;ratioP1;P1;durP2;ratioP2;P2;SDS_P1;SDS_P2;PMS_P1;PMS_P2;Temp;Humidity;BMP_temperature;BMP_pressure;BME280_temperature;BME280_humidity;BME280_pressure;Samples;Min_cycle;Max_cycle;Signal;HPM_P1;HPM_P2
2024/01/04 00:01:59;;;;;;;1507.78;999.90;;;;;;;;;;5039396;28;20412;-71
2024/01/04 00:04:25;;;;;;;1415.72;999.90;;;;;;;;;;5034930;28;20053;-68
2024/01/04 00:06:52;;;;;;;1541.63;999.90;;;;;;;;;;5034766;28;20029;-69
2024/01/04 00:09:19;;;;;;;1547.50;999.90;;;;;;;;;;5045012;28;20021;-69
2024/01/04 00:11:45;;;;;;;1542.75;999.90;;;;;;;;;;5054690;28;20548;-69
2024/01/04 00:14:12;;;;;;;1533.45;999.90;;;;;;;;;;5054599;28;20094;-70
2024/01/04 00:16:38;;;;;;;1525.60;999.90;;;;;;;;;;5054595;28;20037;-70
2024/01/04 00:19:05;;;;;;;1544.07;999.90;;;;;;;;;;5053823;28;20017;-70
2024/01/04 00:21:32;;;;;;;1550.47;999.90;;;;;;;;;;5054254;28;20053;-70
2024/01/04 00:24:00;;;;;;;1544.13;999.90;;;;;;;;;;5054334;28;20436;-70
2024/01/04 00:26:27;;;;;;;1548.25;999.90;;;;;;;;;;5054614;28;20087;-70
2024/01/04 00:28:53;;;;;;;1527.88;999.90;;;;;;;;;;5052393;28;20025;-70
2024/01/04 00:31:20;;;;;;;1540.32;999.90;;;;;;;;;;5050556;28;20017;-70
2024/01/04 00:33:46;;;;;;;1543.90;999.90;;;;;;;;;;5054294;28;20025;-71
2024/01/04 00:36:14;;;;;;;1548.38;999.90;;;;;;;;;;5054204;28;20078;-70
2024/01/04 00:38:41;;;;;;;1550.57;999.90;;;;;;;;;;5054302;28;20038;-72
2024/01/04 00:41:07;;;;;;;1542.53;999.90;;;;;;;;;;5053345;28;20482;-71
2024/01/04 00:43:34;;;;;;;1511.28;999.90;;;;;;;;;;5054009;28;20032;-70
2024/01/04 00:46:01;;;;;;;1536.53;999.90;;;;;;;;;;5054011;28;20060;-72
2024/01/04 00:48:27;;;;;;;1533.47;999.90;;;;;;;;;;5054243;28;20377;-70
2024/01/04 00:50:54;;;;;;;1549.60;999.90;;;;;;;;;;5054584;28;20024;-70
2024/01/04 00:53:20;;;;;;;1532.28;999.90;;;;;;;;;;5054375;28;20147;-70
2024/01/04 00:55:47;;;;;;;1504.05;999.90;;;;;;;;;;5054281;28;20103;-69
2024/01/04 00:58:14;;;;;;;1538.10;999.90;;;;;;;;;;5053891;28;20028;-70
2024/01/04 01:00:41;;;;;;;1543.25;999.90;;;;;;;;;;5053720;28;20024;-70
2024/01/04 01:03:07;;;;;;;1532.50;999.90;;;;;;;;;;5053701;28;20025;-70
2024/01/04 01:05:34;;;;;;;1409.72;999.90;;;;;;;;;;5053739;28;20059;-69
2024/01/04 01:08:01;;;;;;;1448.25;999.90;;;;;;;;;;5053494;28;20056;-71
2024/01/04 01:10:29;;;;;;;1517.45;999.90;;;;;;;;;;5053672;28;20121;-70
2024/01/04 01:12:56;;;;;;;1528.38;999.90;;;;;;;;;;5050850;28;20028;-70
2024/01/04 01:15:23;;;;;;;1540.32;999.90;;;;;;;;;;5043806;28;20074;-70
2024/01/04 01:17:49;;;;;;;1508.10;999.90;;;;;;;;;;5053653;28;20051;-70
2024/01/04 01:20:16;;;;;;;1495.43;999.90;;;;;;;;;;5053557;28;20016;-70
2024/01/04 01:22:42;;;;;;;1528.95;999.90;;;;;;;;;;5038735;28;20046;-70
2024/01/04 01:25:09;;;;;;;1536.57;999.90;;;;;;;;;;5053460;28;20025;-70
2024/01/04 01:27:36;;;;;;;1540.10;999.90;;;;;;;;;;5053511;28;20041;-69
2024/01/04 01:30:02;;;;;;;1522.82;999.90;;;;;;;;;;5053357;28;20104;-69
2024/01/04 01:32:29;;;;;;;1514.05;999.90;;;;;;;;;;5053511;28;20101;-69
2024/01/04 01:34:57;;;;;;;1498.60;999.90;;;;;;;;;;5053498;28;20021;-69
2024/01/04 01:37:24;;;;;;;1513.90;999.90;;;;;;;;;;5053189;28;20041;-69
2024/01/04 01:39:50;;;;;;;1535.65;999.90;;;;;;;;;;5053424;28;20025;-69
2024/01/04 01:42:20;;;;;;;1542.53;999.90;;;;;;;;;;5053330;28;20029;-69
2024/01/04 01:44:47;;;;;;;1524.47;999.90;;;;;;;;;;5053138;28;20029;-69
2024/01/04 01:47:14;;;;;;;1536.72;999.90;;;;;;;;;;5053387;28;20021;-73
2024/01/04 01:49:41;;;;;;;1535.25;999.90;;;;;;;;;;5053294;28;20021;-69
2024/01/04 01:52:08;;;;;;;1526.57;999.90;;;;;;;;;;5055630;28;20035;-70
2024/01/04 01:54:34;;;;;;;1529.45;999.90;;;;;;;;;;5054641;28;20378;-69
2024/01/04 01:57:01;;;;;;;1531.20;999.90;;;;;;;;;;5057343;28;20032;-69
2024/01/04 01:59:28;;;;;;;1525.03;999.90;;;;;;;;;;5057165;28;20044;-69
2024/01/04 02:01:55;;;;;;;1536.68;999.90;;;;;;;;;;5057435;28;20103;-68
2024/01/04 02:04:21;;;;;;;1516.50;999.90;;;;;;;;;;5057266;28;20033;-69
2024/01/04 02:06:48;;;;;;;1526.85;999.90;;;;;;;;;;5057238;28;20036;-69
2024/01/04 02:09:15;;;;;;;1503.78;999.90;;;;;;;;;;5057203;28;20029;-70
2024/01/04 02:11:41;;;;;;;1412.25;999.90;;;;;;;;;;5057196;28;20489;-71
2024/01/04 02:14:08;;;;;;;1512.78;999.90;;;;;;;;;;5056826;28;20033;-68
2024/01/04 02:16:35;;;;;;;1546.90;999.90;;;;;;;;;;5056957;28;20143;-69
2024/01/04 02:19:01;;;;;;;1423.57;999.90;;;;;;;;;;5056857;28;20036;-68
2024/01/04 02:21:28;;;;;;;1409.35;999.90;;;;;;;;;;5056582;28;20053;-66
2024/01/04 02:23:55;;;;;;;1520.53;999.90;;;;;;;;;;5056851;28;20072;-69
2024/01/04 02:26:21;;;;;;;1535.80;999.90;;;;;;;;;;5056916;28;20056;-69
2024/01/04 02:28:49;;;;;;;1535.07;999.90;;;;;;;;;;5051011;28;20087;-68
2024/01/04 02:31:15;;;;;;;1543.88;999.90;;;;;;;;;;5045587;28;20040;-70
2024/01/04 02:33:42;;;;;;;1531.85;999.90;;;;;;;;;;5036643;28;20471;-70
2024/01/04 02:36:09;;;;;;;1523.20;999.90;;;;;;;;;;5044918;28;20037;-71
2024/01/04 02:38:35;;;;;;;1520.43;999.90;;;;;;;;;;5056371;28;20025;-71
2024/01/04 02:41:02;;;;;;;1507.80;999.90;;;;;;;;;;5056487;28;20025;-71
2024/01/04 02:43:28;;;;;;;1511.65;999.90;;;;;;;;;;5056353;28;20033;-71
2024/01/04 02:45:55;;;;;;;1431.82;999.90;;;;;;;;;;5056287;28;20551;-70
2024/01/04 02:48:21;;;;;;;1563.38;999.90;;;;;;;;;;5056313;28;20104;-68
2024/01/04 02:50:48;;;;;;;1540.47;999.90;;;;;;;;;;5053098;28;20063;-67
2024/01/04 02:53:15;;;;;;;1533.82;999.90;;;;;;;;;;5047869;28;20390;-68
2024/01/04 02:55:41;;;;;;;1530.55;999.90;;;;;;;;;;5041144;28;20021;-70
2024/01/04 02:58:08;;;;;;;1559.50;999.90;;;;;;;;;;5056827;28;20021;-69
2024/01/04 03:00:35;;;;;;;1547.30;999.90;;;;;;;;;;5056633;28;20028;-69
2024/01/04 03:03:02;;;;;;;1432.00;999.90;;;;;;;;;;5055622;28;20112;-69
2024/01/04 03:05:28;;;;;;;1575.13;999.90;;;;;;;;;;5056565;28;20070;-69
2024/01/04 03:07:55;;;;;;;1544.30;999.90;;;;;;;;;;5056447;28;20454;-69
2024/01/04 03:10:22;;;;;;;1541.00;999.90;;;;;;;;;;5056544;28;20021;-70
2024/01/04 03:12:48;;;;;;;1562.55;999.90;;;;;;;;;;5045432;28;20026;-69
2024/01/04 03:15:33;;;;;;;1544.50;999.90;;;;;;;;;;5053241;28;20025;-68
2024/01/04 03:18:00;;;;;;;1550.78;999.90;;;;;;;;;;5056965;28;20028;-68
2024/01/04 03:20:26;;;;;;;1544.60;999.90;;;;;;;;;;5044378;28;20029;-68
2024/01/04 03:22:53;;;;;;;1557.25;999.90;;;;;;;;;;5036018;28;20494;-69
2024/01/04 03:25:20;;;;;;;1537.15;999.90;;;;;;;;;;5036100;28;20108;-66
2024/01/04 03:27:46;;;;;;;1555.32;999.90;;;;;;;;;;5036136;28;20025;-64
2024/01/04 03:30:13;;;;;;;1564.50;999.90;;;;;;;;;;5035856;28;20629;-66
2024/01/04 03:32:40;;;;;;;1435.03;999.90;;;;;;;;;;5040536;28;20017;-65
2024/01/04 03:35:08;;;;;;;1556.63;999.90;;;;;;;;;;5055962;28;20032;-65
2024/01/04 03:37:35;;;;;;;1426.18;999.90;;;;;;;;;;5055776;28;20069;-66
2024/01/04 03:40:02;;;;;;;1553.68;999.90;;;;;;;;;;5055694;28;20035;-67
2024/01/04 03:42:28;;;;;;;1553.93;999.90;;;;;;;;;;5055418;28;20033;-67
2024/01/04 03:44:55;;;;;;;1545.93;999.90;;;;;;;;;;5055168;28;20021;-67
2024/01/04 03:47:22;;;;;;;1541.22;999.90;;;;;;;;;;5055670;28;20021;-66
2024/01/04 03:49:48;;;;;;;1525.03;999.90;;;;;;;;;;5055569;28;20529;-66
2024/01/04 03:52:15;;;;;;;1546.65;999.90;;;;;;;;;;5055233;28;20490;-67
2024/01/04 03:54:41;;;;;;;1555.13;999.90;;;;;;;;;;5053939;28;20071;-68
2024/01/04 03:57:08;;;;;;;1543.72;999.90;;;;;;;;;;5035212;28;20021;-67
2024/01/04 03:59:37;;;;;;;1538.18;999.90;;;;;;;;;;5035031;28;20025;-66
2024/01/04 04:02:04;;;;;;;1538.30;999.90;;;;;;;;;;5035516;28;20029;-68
2024/01/04 04:04:31;;;;;;;1555.15;999.90;;;;;;;;;;5035017;28;20029;-68
2024/01/04 04:06:57;;;;;;;1427.80;999.90;;;;;;;;;;5045361;28;20470;-68
2024/01/04 04:09:24;;;;;;;1545.28;999.90;;;;;;;;;;5054562;28;20017;-68
2024/01/04 04:11:50;;;;;;;1555.95;999.90;;;;;;;;;;5054535;28;20028;-68
2024/01/04 04:14:17;;;;;;;1544.07;999.90;;;;;;;;;;5053365;28;20028;-64
2024/01/04 04:16:44;;;;;;;1447.72;999.90;;;;;;;;;;5051253;28;20036;-69
2024/01/04 04:19:10;;;;;;;1443.78;999.90;;;;;;;;;;5053229;28;20025;-71
2024/01/04 04:21:37;;;;;;;1562.70;999.90;;;;;;;;;;5053530;28;20573;-71
2024/01/04 04:24:04;;;;;;;1538.90;999.90;;;;;;;;;;5054439;28;20059;-67
2024/01/04 04:26:31;;;;;;;1542.78;999.90;;;;;;;;;;5055012;28;20386;-66
2024/01/04 04:28:57;;;;;;;1542.10;999.90;;;;;;;;;;5055114;28;20029;-66
2024/01/04 04:31:24;;;;;;;1541.90;999.90;;;;;;;;;;5054899;28;20017;-67
2024/01/04 04:33:51;;;;;;;1545.75;999.90;;;;;;;;;;5052868;28;20100;-68
2024/01/04 04:36:18;;;;;;;1429.07;999.90;;;;;;;;;;5053021;28;20424;-71
2024/01/04 04:38:44;;;;;;;1574.05;999.90;;;;;;;;;;5052752;28;20114;-68
2024/01/04 04:41:11;;;;;;;1577.45;999.90;;;;;;;;;;5052431;28;20028;-70
2024/01/04 04:43:37;;;;;;;1552.45;999.90;;;;;;;;;;5052746;28;20691;-70
2024/01/04 04:46:09;;;;;;;1541.00;999.90;;;;;;;;;;5053650;28;20094;-70
2024/01/04 04:48:36;;;;;;;1561.63;999.90;;;;;;;;;;5053934;28;20148;-70
2024/01/04 04:51:03;;;;;;;1557.30;999.90;;;;;;;;;;5053852;28;20021;-68
2024/01/04 04:53:30;;;;;;;1500.28;999.90;;;;;;;;;;5053878;28;20021;-68
2024/01/04 04:55:56;;;;;;;1574.72;999.90;;;;;;;;;;5054625;28;20111;-68
2024/01/04 04:58:23;;;;;;;1460.53;999.90;;;;;;;;;;5053002;28;20032;-69
2024/01/04 05:00:49;;;;;;;1567.43;999.90;;;;;;;;;;5053900;28;20474;-68
2024/01/04 05:03:16;;;;;;;1568.45;999.90;;;;;;;;;;5053907;28;20028;-68
2024/01/04 05:05:42;;;;;;;1554.57;999.90;;;;;;;;;;5053598;28;20474;-68
2024/01/04 05:08:09;;;;;;;1564.50;999.90;;;;;;;;;;5053973;28;20079;-68
2024/01/04 05:10:36;;;;;;;1553.53;999.90;;;;;;;;;;5053692;28;20025;-68
2024/01/04 05:13:03;;;;;;;1495.63;999.90;;;;;;;;;;5048772;28;20021;-66
2024/01/04 05:15:29;;;;;;;1429.68;999.90;;;;;;;;;;5039007;28;20064;-66
2024/01/04 05:17:56;;;;;;;1564.38;999.90;;;;;;;;;;5053612;28;20025;-66
2024/01/04 05:20:22;;;;;;;1559.38;999.90;;;;;;;;;;5048208;28;20378;-68
2024/01/04 05:22:49;;;;;;;1559.88;999.90;;;;;;;;;;5033393;28;20045;-65
2024/01/04 05:25:16;;;;;;;1543.70;999.90;;;;;;;;;;5033252;28;20026;-65
2024/01/04 05:27:42;;;;;;;1550.80;999.90;;;;;;;;;;5033063;28;20044;-65
2024/01/04 05:30:10;;;;;;;1561.60;999.90;;;;;;;;;;5040281;28;20515;-66
2024/01/04 05:32:37;;;;;;;1563.15;999.90;;;;;;;;;;5041592;28;20065;-66
2024/01/04 05:35:04;;;;;;;1429.50;999.90;;;;;;;;;;5039010;28;20036;-65
2024/01/04 05:37:31;;;;;;;1555.10;999.90;;;;;;;;;;5053718;28;20032;-65
2024/01/04 05:39:57;;;;;;;1560.68;999.90;;;;;;;;;;5053186;28;20027;-65
2024/01/04 05:42:24;;;;;;;1537.75;999.90;;;;;;;;;;5053487;28;20382;-66
2024/01/04 05:44:51;;;;;;;1553.63;999.90;;;;;;;;;;5052937;28;20521;-66
2024/01/04 05:47:17;;;;;;;1550.97;999.90;;;;;;;;;;5053162;28;20025;-63
2024/01/04 05:49:44;;;;;;;1548.50;999.90;;;;;;;;;;5053250;28;20021;-67
2024/01/04 05:52:10;;;;;;;1550.93;999.90;;;;;;;;;;5053351;28;20052;-66
2024/01/04 05:54:37;;;;;;;1547.95;999.90;;;;;;;;;;5053363;28;20080;-66
2024/01/04 05:57:04;;;;;;;1537.13;999.90;;;;;;;;;;5053114;28;20028;-66
2024/01/04 05:59:30;;;;;;;1555.15;999.90;;;;;;;;;;5053097;28;20045;-66
2024/01/04 06:01:57;;;;;;;1538.90;999.90;;;;;;;;;;5054350;28;20569;-66
2024/01/04 06:04:23;;;;;;;1474.32;999.90;;;;;;;;;;5054070;28;20065;-66
2024/01/04 06:06:50;;;;;;;1546.47;999.90;;;;;;;;;;5052815;28;20428;-66
2024/01/04 06:09:20;;;;;;;1540.35;999.90;;;;;;;;;;5052897;28;20082;-68
2024/01/04 06:11:47;;;;;;;1552.93;999.90;;;;;;;;;;5053161;28;20029;-66
2024/01/04 06:14:14;;;;;;;1542.95;999.90;;;;;;;;;;5052835;28;20029;-67
2024/01/04 06:16:40;;;;;;;1539.88;999.90;;;;;;;;;;5052855;28;20107;-66
2024/01/04 06:19:07;;;;;;;1498.28;999.90;;;;;;;;;;5052939;28;20021;-66
2024/01/04 06:21:33;;;;;;;1532.60;999.90;;;;;;;;;;5052706;28;20045;-66
2024/01/04 06:24:00;;;;;;;1511.05;999.90;;;;;;;;;;5052805;28;20415;-66
2024/01/04 06:26:27;;;;;;;1548.18;999.90;;;;;;;;;;5052957;28;20099;-66
2024/01/04 06:28:53;;;;;;;1547.43;999.90;;;;;;;;;;5052560;28;20469;-67
2024/01/04 06:31:20;;;;;;;1539.53;999.90;;;;;;;;;;5052680;28;20033;-67
2024/01/04 06:33:46;;;;;;;1527.10;999.90;;;;;;;;;;5052958;28;20029;-67
2024/01/04 06:36:13;;;;;;;1543.80;999.90;;;;;;;;;;5052915;28;20442;-67
2024/01/04 06:38:40;;;;;;;1533.78;999.90;;;;;;;;;;5055843;28;20425;-67
2024/01/04 06:41:07;;;;;;;1530.78;999.90;;;;;;;;;;5056492;28;20021;-67
2024/01/04 06:43:34;;;;;;;1470.07;999.90;;;;;;;;;;5056123;28;20109;-67
2024/01/04 06:46:00;;;;;;;1544.68;999.90;;;;;;;;;;5056503;28;20036;-67
2024/01/04 06:48:27;;;;;;;1537.70;999.90;;;;;;;;;;5056358;28;20013;-67
2024/01/04 06:50:54;;;;;;;1532.35;999.90;;;;;;;;;;5056242;28;20474;-68
2024/01/04 06:53:20;;;;;;;1540.72;999.90;;;;;;;;;;5056212;28;20033;-68
2024/01/04 06:55:47;;;;;;;1540.53;999.90;;;;;;;;;;5056242;28;20431;-68
2024/01/04 06:58:14;;;;;;;1415.25;999.90;;;;;;;;;;5055777;28;20025;-67
2024/01/04 07:00:40;;;;;;;1539.30;999.90;;;;;;;;;;5056445;28;20028;-67
2024/01/04 07:03:07;;;;;;;1513.45;999.90;;;;;;;;;;5056057;28;20028;-67
2024/01/04 07:05:33;;;;;;;1526.80;999.90;;;;;;;;;;5056239;28;20029;-69
2024/01/04 07:08:00;;;;;;;1404.38;999.90;;;;;;;;;;5056134;28;20031;-67
2024/01/04 07:10:27;;;;;;;1541.18;999.90;;;;;;;;;;5055991;28;20382;-67
2024/01/04 07:12:54;;;;;;;1528.85;999.90;;;;;;;;;;5056367;28;20074;-67
2024/01/04 07:15:21;;;;;;;1523.95;999.90;;;;;;;;;;5057026;28;20097;-66
2024/01/04 07:17:47;;;;;;;1525.65;999.90;;;;;;;;;;5056153;28;20079;-67
2024/01/04 07:20:14;;;;;;;1542.03;999.90;;;;;;;;;;5055779;28;20021;-66
2024/01/04 07:22:41;;;;;;;1539.82;999.90;;;;;;;;;;5055523;28;20044;-67
2024/01/04 07:25:08;;;;;;;1532.72;999.90;;;;;;;;;;5055719;28;20043;-67
2024/01/04 07:27:35;;;;;;;1527.43;999.90;;;;;;;;;;5055622;28;20033;-68
2024/01/04 07:30:01;;;;;;;1524.38;999.90;;;;;;;;;;5055623;28;20036;-67
2024/01/04 07:32:28;;;;;;;1548.82;999.90;;;;;;;;;;5055882;28;20020;-67
2024/01/04 07:34:54;;;;;;;1406.28;999.90;;;;;;;;;;5056171;28;20056;-72
2024/01/04 07:37:21;;;;;;;1552.00;999.90;;;;;;;;;;5055487;28;20492;-71
2024/01/04 07:39:49;;;;;;;1533.20;999.90;;;;;;;;;;5055429;28;20033;-67
2024/01/04 07:42:15;;;;;;;1551.43;999.90;;;;;;;;;;5055252;28;20029;-66
2024/01/04 07:44:42;;;;;;;1522.63;999.90;;;;;;;;;;5055103;28;20025;-68
2024/01/04 07:47:08;;;;;;;1479.60;999.90;;;;;;;;;;5055170;28;20028;-67
2024/01/04 07:49:35;;;;;;;1553.22;999.90;;;;;;;;;;5054407;28;20112;-66
2024/01/04 07:52:02;;;;;;;1494.40;999.90;;;;;;;;;;5054302;28;20022;-66
2024/01/04 07:54:29;;;;;;;1512.13;999.90;;;;;;;;;;5054794;28;20025;-66
2024/01/04 07:56:56;;;;;;;1509.47;999.90;;;;;;;;;;5055194;28;20025;-67
2024/01/04 07:59:22;;;;;;;1539.50;999.90;;;;;;;;;;5054987;28;20028;-67
2024/01/04 08:01:49;;;;;;;1543.60;999.90;;;;;;;;;;5055245;28;20474;-68
2024/01/04 08:04:16;;;;;;;1533.38;999.90;;;;;;;;;;5054928;28;20086;-66
2024/01/04 08:06:42;;;;;;;1531.25;999.90;;;;;;;;;;5054749;28;20029;-67
2024/01/04 08:09:11;;;;;;;1551.25;999.90;;;;;;;;;;5054781;28;20032;-68
2024/01/04 08:11:38;;;;;;;1551.90;999.90;;;;;;;;;;5054680;28;20025;-68
2024/01/04 08:14:05;;;;;;;1411.43;999.90;;;;;;;;;;5054661;28;20099;-66
2024/01/04 08:16:32;;;;;;;1528.78;999.90;;;;;;;;;;5054776;28;20045;-67
2024/01/04 08:18:58;;;;;;;1548.90;999.90;;;;;;;;;;5054622;28;20029;-67
2024/01/04 08:21:25;;;;;;;1551.60;999.90;;;;;;;;;;5054100;28;20031;-68
2024/01/04 08:23:52;;;;;;;1555.30;999.90;;;;;;;;;;5054204;28;20131;-68
2024/01/04 08:26:18;;;;;;;1556.38;999.90;;;;;;;;;;5054233;28;20561;-68
2024/01/04 08:28:45;;;;;;;1559.72;999.90;;;;;;;;;;5054198;28;20021;-67
2024/01/04 08:31:12;;;;;;;1550.70;999.90;;;;;;;;;;5054072;28;20025;-68
2024/01/04 08:33:38;;;;;;;1544.75;999.90;;;;;;;;;;5054110;28;20033;-67
2024/01/04 08:36:05;;;;;;;1551.90;999.90;;;;;;;;;;5054103;28;20074;-68
2024/01/04 08:38:32;;;;;;;1462.05;999.90;;;;;;;;;;5053989;28;20390;-67
2024/01/04 08:40:58;;;;;;;1540.32;999.90;;;;;;;;;;5054116;28;20085;-70
2024/01/04 08:43:25;;;;;;;1527.70;999.90;;;;;;;;;;5051265;28;20367;-71
2024/01/04 08:45:51;;;;;;;1512.05;999.90;;;;;;;;;;5053917;28;20017;-71
2024/01/04 08:48:18;;;;;;;1542.70;999.90;;;;;;;;;;5053845;28;20025;-72
2024/01/04 08:50:45;;;;;;;1517.28;999.90;;;;;;;;;;5050987;28;20107;-67
2024/01/04 08:53:13;;;;;;;1535.50;999.90;;;;;;;;;;5052475;28;20488;-67
2024/01/04 08:55:39;;;;;;;1505.43;999.90;;;;;;;;;;5052919;28;20021;-67
2024/01/04 08:58:06;;;;;;;1531.53;999.90;;;;;;;;;;5051101;28;20031;-67
2024/01/04 09:00:35;;;;;;;1556.18;999.90;;;;;;;;;;5052731;28;20033;-66
2024/01/04 09:03:02;;;;;;;1557.05;999.90;;;;;;;;;;5053296;28;20053;-67
2024/01/04 09:05:30;;;;;;;1411.80;999.90;;;;;;;;;;5053570;28;20025;-66
2024/01/04 09:07:56;;;;;;;1549.55;999.90;;;;;;;;;;5053392;28;20021;-67
2024/01/04 09:10:24;;;;;;;1548.22;999.90;;;;;;;;;;5052567;28;20017;-67
2024/01/04 09:12:52;;;;;;;1547.18;999.90;;;;;;;;;;5052482;28;20028;-71
2024/01/04 09:15:18;;;;;;;1546.97;999.90;;;;;;;;;;5052472;28;20028;-67
2024/01/04 09:17:45;;;;;;;1528.22;999.90;;;;;;;;;;5050371;28;20025;-66
2024/01/04 09:20:14;;;;;;;1540.35;999.90;;;;;;;;;;5052936;28;20033;-68
2024/01/04 09:22:41;;;;;;;1543.55;999.90;;;;;;;;;;5050138;28;20391;-65
2024/01/04 09:25:07;;;;;;;1404.75;999.90;;;;;;;;;;5051081;28;20032;-66
2024/01/04 09:27:34;;;;;;;1555.50;999.90;;;;;;;;;;5050340;28;20017;-67
2024/01/04 09:30:01;;;;;;;1550.93;999.90;;;;;;;;;;5046000;28;20021;-66
2024/01/04 09:32:29;;;;;;;1546.93;999.90;;;;;;;;;;5052282;28;20025;-67
2024/01/04 09:34:56;;;;;;;1508.10;999.90;;;;;;;;;;5052391;28;20624;-68
2024/01/04 09:37:22;;;;;;;1547.63;999.90;;;;;;;;;;5050371;28;20100;-68
2024/01/04 09:39:50;;;;;;;1557.72;999.90;;;;;;;;;;5051776;28;20029;-68
2024/01/04 09:42:17;;;;;;;1534.65;999.90;;;;;;;;;;5051365;28;20398;-67
2024/01/04 09:44:45;;;;;;;1399.05;999.90;;;;;;;;;;5051812;28;20413;-67
2024/01/04 09:47:14;;;;;;;1537.18;999.90;;;;;;;;;;5051950;28;20490;-68
2024/01/04 09:49:42;;;;;;;1556.57;999.90;;;;;;;;;;5052419;28;20021;-67
2024/01/04 09:52:09;;;;;;;1551.63;999.90;;;;;;;;;;5052451;28;20035;-68
2024/01/04 09:54:38;;;;;;;1425.60;999.90;;;;;;;;;;5051704;28;20021;-68
2024/01/04 09:57:07;;;;;;;1555.72;999.90;;;;;;;;;;5051295;28;20108;-68
2024/01/04 09:59:34;;;;;;;1560.05;999.90;;;;;;;;;;5052119;28;20060;-68
2024/01/04 10:02:01;;;;;;;1554.00;999.90;;;;;;;;;;5052310;28;20056;-66
2024/01/04 10:04:28;;;;;;;1411.10;999.90;;;;;;;;;;5051703;28;20234;-67
2024/01/04 10:06:59;;;;;;;1546.75;999.90;;;;;;;;;;5049333;28;20021;-67
2024/01/04 10:09:28;;;;;;;1552.63;999.90;;;;;;;;;;5048922;28;20025;-69
2024/01/04 10:11:58;;;;;;;1548.18;999.90;;;;;;;;;;5051479;28;20077;-69
2024/01/04 10:14:26;;;;;;;1547.07;999.90;;;;;;;;;;5054918;28;20313;-67
2024/01/04 10:16:53;;;;;;;1545.95;999.90;;;;;;;;;;5056316;28;20036;-70
2024/01/04 10:19:19;;;;;;;1540.72;999.90;;;;;;;;;;5055024;28;20017;-69
2024/01/04 10:21:47;;;;;;;1554.97;999.90;;;;;;;;;;5053762;28;20037;-69
2024/01/04 10:24:15;;;;;;;1546.45;999.90;;;;;;;;;;5056235;28;20110;-70
2024/01/04 10:26:44;;;;;;;1410.68;999.90;;;;;;;;;;5055894;28;20469;-69
2024/01/04 10:29:11;;;;;;;1541.90;999.90;;;;;;;;;;5056080;28;20032;-70
2024/01/04 10:31:37;;;;;;;1544.88;999.90;;;;;;;;;;5055222;28;20032;-70
2024/01/04 10:34:04;;;;;;;1548.57;999.90;;;;;;;;;;5055924;28;20021;-69
2024/01/04 10:36:32;;;;;;;1550.07;999.90;;;;;;;;;;5055837;28;20575;-66
2024/01/04 10:39:00;;;;;;;1552.53;999.90;;;;;;;;;;5055808;28;20029;-66
2024/01/04 10:41:30;;;;;;;1529.18;999.90;;;;;;;;;;5055682;28;20032;-68
2024/01/04 10:44:13;;;;;;;1528.70;999.90;;;;;;;;;;5055666;28;20032;-67
2024/01/04 10:46:42;;;;;;;1531.28;999.90;;;;;;;;;;5055481;28;20549;-66
2024/01/04 10:49:08;;;;;;;1552.88;999.90;;;;;;;;;;5055617;28;20392;-65
2024/01/04 10:51:35;;;;;;;1559.18;999.90;;;;;;;;;;5055726;28;20013;-68
2024/01/04 10:54:02;;;;;;;1441.65;999.90;;;;;;;;;;5055504;28;20466;-66
2024/01/04 10:56:30;;;;;;;1577.07;999.90;;;;;;;;;;5055613;28;20068;-71
2024/01/04 10:58:57;;;;;;;1569.72;999.90;;;;;;;;;;5055677;28;20538;-71
2024/01/04 11:01:25;;;;;;;1551.72;999.90;;;;;;;;;;5052480;28;20051;-68
2024/01/04 11:03:59;;;;;;;1549.55;999.90;;;;;;;;;;5055365;28;20021;-66
2024/01/04 11:06:27;;;;;;;1541.75;999.90;;;;;;;;;;5054581;28;20041;-66
2024/01/04 11:08:56;;;;;;;1533.32;999.90;;;;;;;;;;5054105;28;20017;-67
2024/01/04 11:11:25;;;;;;;1572.90;999.90;;;;;;;;;;5054555;28;20094;-67
2024/01/04 11:13:52;;;;;;;1465.18;999.90;;;;;;;;;;5054957;28;20037;-69
2024/01/04 11:16:27;;;;;;;1574.70;999.90;;;;;;;;;;5054656;28;20032;-70
2024/01/04 11:19:09;;;;;;;1575.78;999.90;;;;;;;;;;5053544;28;20409;-69
2024/01/04 11:21:55;;;;;;;1569.43;999.90;;;;;;;;;;5054515;28;20406;-70
2024/01/04 11:24:31;;;;;;;1548.55;999.90;;;;;;;;;;5053850;28;20159;-70
2024/01/04 11:26:59;;;;;;;1567.20;999.90;;;;;;;;;;5054219;28;20059;-70
2024/01/04 11:29:28;;;;;;;1559.40;999.90;;;;;;;;;;5052845;28;20043;-70
2024/01/04 11:31:59;;;;;;;1564.50;999.90;;;;;;;;;;5055274;28;20351;-70
2024/01/04 11:34:26;;;;;;;1521.18;999.90;;;;;;;;;;5049145;28;20028;-70
2024/01/04 11:37:09;;;;;;;1539.38;999.90;;;;;;;;;;5054791;28;20048;-70
2024/01/04 11:39:35;;;;;;;1548.97;999.90;;;;;;;;;;5051646;28;20063;-71
2024/01/04 11:42:13;;;;;;;1508.57;999.90;;;;;;;;;;5054970;28;20029;-69
2024/01/04 11:44:39;;;;;;;1547.35;999.90;;;;;;;;;;5054595;28;20029;-70
2024/01/04 11:47:14;;;;;;;1553.95;999.90;;;;;;;;;;5053812;28;20421;-68
2024/01/04 11:49:48;;;;;;;1562.78;999.90;;;;;;;;;;5052209;28;20413;-71
2024/01/04 11:52:16;;;;;;;1576.47;999.90;;;;;;;;;;5053366;28;20028;-70
2024/01/04 11:54:43;;;;;;;1409.80;999.90;;;;;;;;;;5054430;28;20104;-72
2024/01/04 11:57:18;;;;;;;1569.57;999.90;;;;;;;;;;5054969;28;20389;-68
2024/01/04 11:59:45;;;;;;;1533.47;999.90;;;;;;;;;;5050509;28;20032;-68
2024/01/04 12:02:22;;;;;;;1548.75;999.90;;;;;;;;;;5050487;28;20021;-70
2024/01/04 12:04:49;;;;;;;1522.75;999.90;;;;;;;;;;5052583;28;20024;-70
2024/01/04 12:07:15;;;;;;;1548.82;999.90;;;;;;;;;;5055726;28;20017;-71
2024/01/04 12:09:42;;;;;;;1546.10;999.90;;;;;;;;;;5052341;28;20470;-72
2024/01/04 12:12:09;;;;;;;1544.20;999.90;;;;;;;;;;5054945;28;20405;-75
2024/01/04 12:14:36;;;;;;;1542.55;999.90;;;;;;;;;;5053211;28;20470;-69
2024/01/04 12:17:03;;;;;;;1552.13;999.90;;;;;;;;;;5055038;28;20078;-72
2024/01/04 12:19:30;;;;;;;1568.18;999.90;;;;;;;;;;5053047;28;20027;-74
2024/01/04 12:21:57;;;;;;;1631.57;999.90;;;;;;;;;;5054146;28;20045;-72
2024/01/04 12:24:24;;;;;;;1557.00;999.90;;;;;;;;;;5056878;28;20175;-73
2024/01/04 12:26:50;;;;;;;1574.90;999.90;;;;;;;;;;5056350;28;20021;-68
2024/01/04 12:29:17;;;;;;;1586.32;999.90;;;;;;;;;;5059216;28;20020;-72
2024/01/04 12:31:44;;;;;;;1999.90;999.90;;;;;;;;;;5053896;28;20106;-70
2024/01/04 12:34:11;;;;;;;1570.57;999.90;;;;;;;;;;5053448;28;20501;-71
2024/01/04 12:36:38;;;;;;;1578.50;999.90;;;;;;;;;;5055009;28;20151;-70
2024/01/04 12:39:07;;;;;;;1571.22;999.90;;;;;;;;;;5053074;28;20028;-73
2024/01/04 12:41:35;;;;;;;1575.40;999.90;;;;;;;;;;5053402;28;20029;-72
2024/01/04 12:44:04;;;;;;;1583.05;999.90;;;;;;;;;;5053629;28;20025;-72
2024/01/04 12:46:31;;;;;;;1597.65;999.90;;;;;;;;;;5054408;28;20017;-73
2024/01/04 12:49:07;;;;;;;1650.25;999.90;;;;;;;;;;5055783;28;20024;-70
2024/01/04 12:51:37;;;;;;;1624.05;999.90;;;;;;;;;;5054185;28;20021;-71
2024/01/04 12:54:04;;;;;;;1593.97;999.90;;;;;;;;;;5054270;28;20032;-71
2024/01/04 12:56:31;;;;;;;1607.07;999.90;;;;;;;;;;5052774;28;20503;-71
2024/01/04 12:59:01;;;;;;;1587.00;999.90;;;;;;;;;;5055494;28;20024;-73
2024/01/04 13:01:28;;;;;;;1583.40;999.90;;;;;;;;;;5053988;28;20432;-71
2024/01/04 13:03:55;;;;;;;1668.30;999.90;;;;;;;;;;5051127;28;20024;-70
2024/01/04 13:06:22;;;;;;;1578.20;999.90;;;;;;;;;;5052583;28;20528;-70
2024/01/04 13:08:50;;;;;;;1546.47;999.90;;;;;;;;;;5054800;28;20087;-71
2024/01/04 13:11:19;;;;;;;1588.38;999.90;;;;;;;;;;5051111;28;20032;-72
2024/01/04 13:13:46;;;;;;;1585.88;999.90;;;;;;;;;;5053780;28;20033;-72
2024/01/04 13:16:13;;;;;;;1545.05;999.90;;;;;;;;;;5052544;28;20496;-72
2024/01/04 13:18:40;;;;;;;1565.40;999.90;;;;;;;;;;5052739;28;20028;-73
2024/01/04 13:21:07;;;;;;;1547.90;999.90;;;;;;;;;;5055458;28;20108;-70
2024/01/04 13:23:33;;;;;;;1540.82;999.90;;;;;;;;;;5055132;28;20045;-73
2024/01/04 13:26:00;;;;;;;1549.85;999.90;;;;;;;;;;5052806;28;20106;-72
2024/01/04 13:28:27;;;;;;;1528.07;999.90;;;;;;;;;;5077295;22;20057;-71
2024/01/04 13:30:54;;;;;;;1573.95;999.90;;;;;;;;;;5024813;28;20482;-70
2024/01/04 13:33:21;;;;;;;1563.78;999.90;;;;;;;;;;5032020;28;20030;-71
2024/01/04 13:35:48;;;;;;;1575.75;999.90;;;;;;;;;;5028448;28;20104;-74
2024/01/04 13:38:14;;;;;;;1543.90;999.90;;;;;;;;;;5027570;28;20028;-73
2024/01/04 13:40:41;;;;;;;1558.40;999.90;;;;;;;;;;5022094;28;20050;-71
2024/01/04 13:43:07;;;;;;;1549.65;999.90;;;;;;;;;;5023612;28;20068;-70